Wetterdaten: aktuell Freitag, 04.09.2026 21:30
Datum Zeit Temperatur Temp. +5 cm Temp. -10 cm Feuchte A. Luftdruck Regen Wind Richtung Richtung Zeit Sonne UV-I Solarstrahlg Taupunkt Windchill Windböen
04.09.2026 21:30 17,1 °C 16,1 °C 17,8 °C 89 % 1010,7 hPa 0,2 l/m² 9,5 km/h (2 Bft) NW 305 ° 0 min 0,0 UV-I 5 W/m² 15,3 °C 17,1 °C 16,1 km/h (3 Bft)
04.09.2026 20:30 16,7 °C 15,6 °C 18,3 °C 87 % 1009,9 hPa 5,8 l/m² 1,0 km/h (0 Bft) NW 308 ° 0 min 0,0 UV-I 5 W/m² 14,5 °C 16,7 °C 3,2 km/h (1 Bft)
04.09.2026 19:30 16,9 °C 15,6 °C 18,3 °C 82 % 1010,2 hPa 2,8 l/m² 8,4 km/h (2 Bft) N-NW 338 ° 0 min 0,0 UV-I 5 W/m² 13,8 °C 16,9 °C 12,9 km/h (3 Bft)
04.09.2026 18:30 17,9 °C 16,1 °C 18,3 °C 78 % 1009,5 hPa 0,0 l/m² 6,6 km/h (2 Bft) NO 39 ° 0 min 0,0 UV-I 21 W/m² 14,0 °C 17,9 °C 11,3 km/h (2 Bft)
04.09.2026 17:30 18,4 °C 16,1 °C 18,3 °C 77 % 1009,7 hPa 1,0 l/m² 15,5 km/h (3 Bft) N 4 ° 0 min 0,0 UV-I 26 W/m² 14,3 °C 18,4 °C 32,2 km/h (5 Bft)
04.09.2026 16:30 27,7 °C 31,1 °C 18,3 °C 54 % 1006,8 hPa 0,0 l/m² 20,7 km/h (4 Bft) NO 40 ° 26 min 1,6 UV-I 640 W/m² 17,5 °C 27,7 °C 48,3 km/h (6 Bft)
04.09.2026 15:30 26,0 °C 25,0 °C 18,3 °C 60 % 1007,1 hPa 0,0 l/m² 15,1 km/h (3 Bft) N-NW 327 ° 0 min 0,0 UV-I 128 W/m² 17,6 °C 26,0 °C 41,8 km/h (6 Bft)
04.09.2026 14:30 25,8 °C 26,7 °C 18,3 °C 61 % 1008,0 hPa 0,0 l/m² 12,0 km/h (2 Bft) N-NO 22 ° 2 min 1,5 UV-I 294 W/m² 17,7 °C 25,8 °C 20,9 km/h (4 Bft)
04.09.2026 13:30 25,0 °C 25,6 °C 18,3 °C 63 % 1008,8 hPa 0,0 l/m² 16,4 km/h (3 Bft) NW 310 ° 2 min 1,8 UV-I 294 W/m² 17,5 °C 25,0 °C 40,2 km/h (6 Bft)
04.09.2026 12:30 24,6 °C 25,0 °C 17,8 °C 64 % 1009,8 hPa 0,0 l/m² 17,4 km/h (3 Bft) NW 317 ° 20 min 1,7 UV-I 279 W/m² 17,3 °C 24,6 °C 29,0 km/h (5 Bft)
04.09.2026 11:30 23,5 °C 23,9 °C 17,8 °C 67 % 1010,6 hPa 0,0 l/m² 13,3 km/h (3 Bft) W 273 ° 34 min 1,3 UV-I 225 W/m² 17,0 °C 23,5 °C 22,5 km/h (4 Bft)
04.09.2026 10:30 22,8 °C 23,3 °C 17,2 °C 70 % 1011,3 hPa 0,0 l/m² 16,2 km/h (3 Bft) W-SW 239 ° 24 min 2,0 UV-I 383 W/m² 17,0 °C 22,8 °C 32,2 km/h (5 Bft)
04.09.2026 09:30 21,7 °C 22,2 °C 17,2 °C 75 % 1011,8 hPa 0,0 l/m² 10,4 km/h (2 Bft) W 276 ° 22 min 0,8 UV-I 174 W/m² 17,1 °C 21,7 °C 20,9 km/h (4 Bft)
04.09.2026 08:30 20,0 °C 20,0 °C 17,2 °C 80 % 1012,5 hPa 0,0 l/m² 7,4 km/h (2 Bft) W 262 ° 0 min 0,5 UV-I 144 W/m² 16,4 °C 20,0 °C 16,1 km/h (3 Bft)
04.09.2026 07:30 19,2 °C 18,3 °C 17,2 °C 81 % 1013,1 hPa 0,0 l/m² 9,2 km/h (2 Bft) W-SW 258 ° 24 min 0,0 UV-I 49 W/m² 15,9 °C 19,2 °C 14,5 km/h (3 Bft)
04.09.2026 06:30 18,8 °C 17,8 °C 17,2 °C 81 % 1013,6 hPa 0,0 l/m² 6,7 km/h (2 Bft) W 261 ° 0 min 0,0 UV-I 0 W/m² 15,5 °C 18,8 °C 9,7 km/h (2 Bft)
04.09.2026 04:05 18,6 °C 16,7 °C 17,2 °C 80 % 1014,9 hPa 0,0 l/m² 4,8 km/h (1 Bft) W 262 ° 0 min 0,0 UV-I 0 W/m² 15,1 °C 18,6 °C 9,7 km/h (2 Bft)
04.09.2026 03:06 19,0 °C 17,8 °C 17,2 °C 78 % 1015,1 hPa 0,0 l/m² 4,5 km/h (1 Bft) W-NW 289 ° 0 min 0,0 UV-I 0 W/m² 15,1 °C 19,0 °C 8,0 km/h (2 Bft)
04.09.2026 02:06 19,0 °C 17,2 °C 17,2 °C 78 % 1015,4 hPa 0,0 l/m² 3,9 km/h (1 Bft) W-NW 292 ° 0 min 0,0 UV-I 0 W/m² 15,1 °C 19,0 °C 8,0 km/h (2 Bft)
04.09.2026 01:06 18,8 °C 17,2 °C 17,8 °C 78 % 1015,9 hPa 0,0 l/m² 6,1 km/h (2 Bft) W 265 ° 0 min 0,0 UV-I 0 W/m² 14,9 °C 18,8 °C 12,9 km/h (3 Bft)
04.09.2026 00:06 18,8 °C 17,2 °C 17,8 °C 78 % 1016,3 hPa 0,0 l/m² 7,9 km/h (2 Bft) W 275 ° 0 min 0,0 UV-I 0 W/m² 14,9 °C 18,8 °C 12,9 km/h (3 Bft)
04.09.2026 00:00 18,8 °C 17,8 °C 17,8 °C 78 % 1016,2 hPa 0,0 l/m² 6,3 km/h (2 Bft) W-NW 302 ° 0 min 0,0 UV-I 0 W/m² 14,9 °C 18,8 °C 11,3 km/h (2 Bft)
_ Min-Zeit 20:34 20:48 10:46 16:54 16:36 - 20:48 - - - - - 18:44 20:34 20:42
Minimum _ 16,6 °C 15,6 °C 17,2 °C 54 % 1006,8 hPa - 0,0 km/h (0 Bft) - - - - - 13,7 °C 16,6 °C 0,0 km/h (0 Bft)
_ Max-Zeit 16:32 16:30 20:58 21:30 00:10 19:30 16:54 - - 16:30 12:14 16:20 16:18 16:32 16:54
Maximum _ 27,7 °C 31,1 °C 18,3 °C 89 % 1016,4 hPa 1,2 l/m² 31,2 km/h
N-NO (5 Bft)
- - 2 min 3,4 UV-I 680 W/m² 18,1 °C 27,7 °C 59,5 km/h
N-NO (7 Bft)
Durchschnitt _ 20,7 °C 20,1 °C 17,7 °C 74 % 1011,6 hPa #9,8 l/m² 10,8 km/h (2 Bft) W - #2:34 h 1,4 UV-I 166 W/m² 15,9 °C 20,7 °C 20,1 km/h (4 Bft)